Time;durP1;ratioP1;P1;durP2;ratioP2;P2;SDS_P1;SDS_P2;PMS_P1;PMS_P2;Temp;Humidity;BMP_temperature;BMP_pressure;BME280_temperature;BME280_humidity;BME280_pressure;Samples;Min_cycle;Max_cycle;Signal;HPM_P1;HPM_P2
2023/07/22 00:02:16;;;;;;;3.92;3.25;;;15.00;99.90;;;;;;5005345;28;20088;-57
2023/07/22 00:04:42;;;;;;;7.97;3.20;;;15.00;99.90;;;;;;5003992;28;20033;-56
2023/07/22 00:07:07;;;;;;;4.47;4.05;;;14.90;99.90;;;;;;5004221;28;20472;-56
2023/07/22 00:09:36;;;;;;;7.05;3.72;;;14.90;99.90;;;;;;5026764;28;20022;-57
2023/07/22 00:12:01;;;;;;;4.25;3.65;;;14.80;99.90;;;;;;5011438;28;20049;-57
2023/07/22 00:14:27;;;;;;;11.52;3.95;;;14.70;99.90;;;;;;5011950;28;20022;-56
2023/07/22 00:16:52;;;;;;;5.80;3.60;;;14.80;99.90;;;;;;5027244;28;20105;-56
2023/07/22 00:19:18;;;;;;;5.53;4.13;;;14.70;99.90;;;;;;5011817;28;20093;-56
2023/07/22 00:21:44;;;;;;;6.97;4.22;;;14.70;99.90;;;;;;5011297;28;20026;-56
2023/07/22 00:24:10;;;;;;;9.25;4.15;;;14.60;99.90;;;;;;5011362;28;20349;-56
2023/07/22 00:26:36;;;;;;;4.60;3.70;;;14.60;99.90;;;;;;5011555;28;20430;-57
2023/07/22 00:29:02;;;;;;;4.35;3.92;;;14.60;99.90;;;;;;5011251;28;20018;-56
2023/07/22 00:31:28;;;;;;;7.07;4.35;;;14.60;99.90;;;;;;5026169;28;20022;-56
2023/07/22 00:33:53;;;;;;;7.07;4.57;;;14.50;99.90;;;;;;5011029;28;20022;-56
2023/07/22 00:36:19;;;;;;;5.85;4.82;;;14.50;99.90;;;;;;5005798;28;20099;-57
2023/07/22 00:38:44;;;;;;;6.63;5.70;;;14.50;99.90;;;;;;5002078;28;20025;-56
2023/07/22 00:41:11;;;;;;;5.78;5.07;;;14.50;99.90;;;;;;5004129;28;20029;-56
2023/07/22 00:43:36;;;;;;;10.05;6.50;;;14.40;99.90;;;;;;5002508;28;20494;-56
2023/07/22 00:46:03;;;;;;;12.68;7.35;;;14.40;99.90;;;;;;5004871;28;20030;-56
2023/07/22 00:48:29;;;;;;;7.82;6.53;;;14.40;99.90;;;;;;4999909;28;20053;-56
2023/07/22 00:50:55;;;;;;;8.52;6.30;;;14.40;99.90;;;;;;5004086;28;20391;-56
2023/07/22 00:53:20;;;;;;;10.93;6.55;;;14.40;99.90;;;;;;5002041;28;20029;-56
2023/07/22 00:55:46;;;;;;;12.02;7.00;;;14.30;99.90;;;;;;5017631;28;20075;-56
2023/07/22 00:58:12;;;;;;;14.02;8.20;;;14.30;99.90;;;;;;5011094;28;20112;-57
2023/07/22 01:00:37;;;;;;;10.73;7.65;;;14.30;99.90;;;;;;5010918;28;20053;-56
2023/07/22 01:03:04;;;;;;;7.75;5.88;;;14.20;99.90;;;;;;5010961;28;20113;-56
2023/07/22 01:05:30;;;;;;;10.90;7.72;;;14.30;99.90;;;;;;5026350;28;20029;-57
2023/07/22 01:07:57;;;;;;;13.60;8.57;;;14.30;99.90;;;;;;5010806;28;20560;-56
2023/07/22 01:10:22;;;;;;;11.05;7.90;;;14.20;99.90;;;;;;5010648;28;20034;-57
2023/07/22 01:12:48;;;;;;;8.57;6.97;;;14.20;99.90;;;;;;5010022;28;20026;-57
2023/07/22 01:15:14;;;;;;;12.27;8.77;;;14.20;99.90;;;;;;5011016;28;20050;-57
2023/07/22 01:17:40;;;;;;;14.35;8.38;;;14.20;99.90;;;;;;5010535;28;20061;-57
2023/07/22 01:20:06;;;;;;;12.85;8.10;;;14.10;99.90;;;;;;5010386;28;20094;-56
2023/07/22 01:22:36;;;;;;;11.38;7.82;;;14.10;99.90;;;;;;5009885;28;20025;-55
2023/07/22 01:25:03;;;;;;;11.50;8.50;;;14.00;99.90;;;;;;5010194;28;20495;-56
2023/07/22 01:27:29;;;;;;;14.77;8.80;;;14.00;99.90;;;;;;5010314;28;20041;-55
2023/07/22 01:29:55;;;;;;;21.77;8.32;;;14.00;99.90;;;;;;5010358;28;20026;-53
2023/07/22 01:32:20;;;;;;;14.05;8.05;;;14.00;99.90;;;;;;5009549;28;20041;-53
2023/07/22 01:34:46;;;;;;;13.20;9.27;;;13.90;99.90;;;;;;5016912;28;20025;-54
2023/07/22 01:37:12;;;;;;;14.23;8.48;;;13.90;99.90;;;;;;5010067;28;20383;-55
2023/07/22 01:39:37;;;;;;;13.82;9.60;;;13.90;99.90;;;;;;5009779;28;20533;-55
2023/07/22 01:42:03;;;;;;;11.38;8.20;;;13.90;99.90;;;;;;5008388;28;20025;-54
2023/07/22 01:44:29;;;;;;;13.23;8.82;;;13.90;99.90;;;;;;5010028;28;20072;-55
2023/07/22 01:46:55;;;;;;;14.55;9.40;;;13.80;99.90;;;;;;5009697;28;20483;-55
2023/07/22 01:49:20;;;;;;;17.95;9.98;;;13.80;99.90;;;;;;5017542;28;20038;-54
2023/07/22 01:51:46;;;;;;;16.38;9.40;;;13.80;99.90;;;;;;5002577;28;20474;-54
2023/07/22 01:54:12;;;;;;;16.17;9.65;;;13.80;99.90;;;;;;5006121;28;20518;-54
2023/07/22 01:56:38;;;;;;;16.00;10.13;;;13.80;99.90;;;;;;5002085;28;20412;-54
2023/07/22 01:59:04;;;;;;;17.77;10.13;;;13.80;99.90;;;;;;5002860;28;20096;-55
2023/07/22 02:01:30;;;;;;;14.70;10.25;;;13.80;99.90;;;;;;5001093;28;20089;-55
2023/07/22 02:03:55;;;;;;;16.38;9.95;;;13.80;99.90;;;;;;5021624;28;20105;-54
2023/07/22 02:06:21;;;;;;;16.65;10.20;;;13.80;99.90;;;;;;5009532;28;20021;-54
2023/07/22 02:08:47;;;;;;;13.05;9.63;;;13.80;99.90;;;;;;5009429;28;20128;-55
2023/07/22 02:11:12;;;;;;;19.65;11.40;;;13.80;99.90;;;;;;5009574;28;20499;-54
2023/07/22 02:13:38;;;;;;;20.30;11.05;;;13.70;99.90;;;;;;5009197;28;20034;-55
2023/07/22 02:16:04;;;;;;;17.63;10.05;;;13.70;99.90;;;;;;5009928;28;20026;-55
2023/07/22 02:18:29;;;;;;;16.42;9.40;;;13.70;99.90;;;;;;5009473;28;20021;-55
2023/07/22 02:20:56;;;;;;;18.17;10.27;;;13.70;99.90;;;;;;5009707;28;20018;-55
2023/07/22 02:23:22;;;;;;;17.58;9.52;;;13.70;99.90;;;;;;5008810;28;20147;-55
2023/07/22 02:25:52;;;;;;;15.60;8.75;;;13.60;99.90;;;;;;5009358;28;20088;-55
2023/07/22 02:28:21;;;;;;;16.60;11.40;;;13.70;99.90;;;;;;5009063;28;20033;-56
2023/07/22 02:30:47;;;;;;;15.32;10.50;;;13.60;99.90;;;;;;5009366;28;20114;-56
2023/07/22 02:33:13;;;;;;;15.05;9.80;;;13.60;99.90;;;;;;5008691;28;20032;-55
2023/07/22 02:35:40;;;;;;;16.52;10.35;;;13.60;99.90;;;;;;5012931;28;20069;-55
2023/07/22 02:38:07;;;;;;;19.60;10.75;;;13.60;99.90;;;;;;5006533;28;20030;-55
2023/07/22 02:40:35;;;;;;;15.48;10.50;;;13.50;99.90;;;;;;5008868;28;20068;-54
2023/07/22 02:43:00;;;;;;;15.10;9.63;;;13.50;99.90;;;;;;5008282;28;20029;-54
2023/07/22 02:45:26;;;;;;;14.23;9.98;;;13.50;99.90;;;;;;5009109;28;20026;-56
2023/07/22 02:47:52;;;;;;;18.38;11.05;;;13.50;99.90;;;;;;5009189;28;20049;-56
2023/07/22 02:50:18;;;;;;;20.63;11.27;;;13.50;99.90;;;;;;5009275;28;20506;-55
2023/07/22 02:52:43;;;;;;;15.25;10.63;;;13.40;99.90;;;;;;5008589;28;20083;-55
2023/07/22 02:55:11;;;;;;;19.98;11.20;;;13.50;99.90;;;;;;5008590;28;20388;-55
2023/07/22 02:57:38;;;;;;;16.83;10.07;;;13.40;99.90;;;;;;5008696;28;20270;-56
2023/07/22 03:00:07;;;;;;;15.18;8.98;;;13.40;99.90;;;;;;5007318;28;20015;-55
2023/07/22 03:02:34;;;;;;;19.27;11.65;;;13.40;99.90;;;;;;5008198;28;20029;-55
2023/07/22 03:05:00;;;;;;;14.85;10.02;;;13.40;99.90;;;;;;5008840;28;20503;-55
2023/07/22 03:07:27;;;;;;;16.38;10.55;;;13.30;99.90;;;;;;5008473;28;20373;-56
2023/07/22 03:09:53;;;;;;;20.73;11.48;;;13.30;99.90;;;;;;5008339;28;20558;-56
2023/07/22 03:12:18;;;;;;;19.40;11.40;;;13.30;99.90;;;;;;5008103;28;20049;-55
2023/07/22 03:14:44;;;;;;;19.85;11.75;;;13.30;99.90;;;;;;5009151;28;20061;-55
2023/07/22 03:17:09;;;;;;;18.98;10.15;;;13.30;99.90;;;;;;5008223;28;20030;-56
2023/07/22 03:19:35;;;;;;;19.83;11.70;;;13.30;99.90;;;;;;5008492;28;20399;-55
2023/07/22 03:22:01;;;;;;;23.30;11.50;;;13.30;99.90;;;;;;5008135;28;20534;-55
2023/07/22 03:24:28;;;;;;;19.17;11.05;;;13.30;99.90;;;;;;5008273;28;20022;-56
2023/07/22 03:26:53;;;;;;;14.95;10.25;;;13.30;99.90;;;;;;5008947;28;20084;-55
2023/07/22 03:29:19;;;;;;;18.70;10.85;;;13.30;99.90;;;;;;5008603;28;20054;-56
2023/07/22 03:31:44;;;;;;;19.02;11.20;;;13.30;99.90;;;;;;5008045;28;20459;-55
2023/07/22 03:34:10;;;;;;;15.95;9.40;;;13.30;99.90;;;;;;5007842;28;20178;-56
2023/07/22 03:36:35;;;;;;;19.48;11.23;;;13.30;99.90;;;;;;5023866;28;20233;-55
2023/07/22 03:39:02;;;;;;;22.48;11.55;;;13.30;99.90;;;;;;5008213;28;20049;-55
2023/07/22 03:41:28;;;;;;;18.20;9.30;;;13.30;99.90;;;;;;5008299;28;20010;-55
2023/07/22 03:43:53;;;;;;;17.83;10.63;;;13.40;99.90;;;;;;5008163;28;20392;-56
2023/07/22 03:46:19;;;;;;;18.80;11.48;;;13.40;99.90;;;;;;5023465;28;20022;-55
2023/07/22 03:48:44;;;;;;;16.33;9.85;;;13.30;99.90;;;;;;5023511;28;20415;-56
2023/07/22 03:51:10;;;;;;;19.42;10.50;;;13.40;99.90;;;;;;5008259;28;20076;-56
2023/07/22 03:53:35;;;;;;;17.92;10.27;;;13.40;99.90;;;;;;5008078;28;20037;-56
2023/07/22 03:56:01;;;;;;;13.32;9.35;;;13.40;99.90;;;;;;5008934;28;20026;-56
2023/07/22 03:58:26;;;;;;;14.38;9.45;;;13.40;99.90;;;;;;5008550;28;20077;-56
2023/07/22 04:00:53;;;;;;;18.85;10.18;;;13.40;99.90;;;;;;5008707;28;20019;-56
2023/07/22 04:03:18;;;;;;;13.48;9.20;;;13.50;99.90;;;;;;5008536;28;20022;-55
2023/07/22 04:05:44;;;;;;;15.45;9.45;;;13.50;99.90;;;;;;5023479;28;20014;-56
2023/07/22 04:08:09;;;;;;;20.63;10.02;;;13.50;99.90;;;;;;5007960;28;20037;-56
2023/07/22 04:10:35;;;;;;;16.80;9.05;;;13.50;99.90;;;;;;5013382;28;20036;-55
2023/07/22 04:13:00;;;;;;;17.67;10.23;;;13.50;99.90;;;;;;5007542;28;20048;-55
2023/07/22 04:15:26;;;;;;;21.05;9.05;;;13.60;99.90;;;;;;5008085;28;20399;-55
2023/07/22 04:17:52;;;;;;;17.40;9.35;;;13.60;99.90;;;;;;5008392;28;20026;-57
2023/07/22 04:20:18;;;;;;;17.15;8.98;;;13.60;99.90;;;;;;5000101;28;20491;-56
2023/07/22 04:22:43;;;;;;;15.05;9.30;;;13.60;99.90;;;;;;5009394;28;20050;-56
2023/07/22 04:25:09;;;;;;;15.77;8.57;;;13.60;99.90;;;;;;5010168;28;20063;-56
2023/07/22 04:27:35;;;;;;;16.10;8.93;;;13.60;99.90;;;;;;5010370;28;20384;-56
2023/07/22 04:30:00;;;;;;;15.27;8.43;;;13.60;99.90;;;;;;5011145;28;20021;-56
2023/07/22 04:32:26;;;;;;;13.82;8.10;;;13.60;99.90;;;;;;5010795;28;20538;-56
2023/07/22 04:34:51;;;;;;;17.38;8.70;;;13.60;99.90;;;;;;5011315;28;20025;-56
2023/07/22 04:37:17;;;;;;;16.95;8.00;;;13.70;99.90;;;;;;5011428;28;20096;-57
2023/07/22 04:39:46;;;;;;;19.85;9.50;;;13.70;99.90;;;;;;5011214;28;20022;-56
2023/07/22 04:42:11;;;;;;;13.95;8.52;;;13.70;99.90;;;;;;5025750;28;20498;-55
2023/07/22 04:44:37;;;;;;;16.00;8.90;;;13.70;99.90;;;;;;5026067;28;20030;-55
2023/07/22 04:47:02;;;;;;;17.13;8.50;;;13.80;99.90;;;;;;5011348;28;20026;-57
2023/07/22 04:49:28;;;;;;;14.35;8.07;;;13.80;99.90;;;;;;5011198;28;20426;-56
2023/07/22 04:51:53;;;;;;;15.65;8.75;;;13.80;99.90;;;;;;5011350;28;20076;-56
2023/07/22 04:54:19;;;;;;;16.58;8.38;;;13.90;99.90;;;;;;5010475;28;20034;-57
2023/07/22 04:56:45;;;;;;;17.02;9.70;;;14.00;99.90;;;;;;5011084;28;20120;-56
2023/07/22 04:59:10;;;;;;;11.85;7.40;;;14.00;99.90;;;;;;5011712;28;20022;-56
2023/07/22 05:01:36;;;;;;;14.27;7.88;;;14.00;99.90;;;;;;5010723;28;20026;-56
2023/07/22 05:04:01;;;;;;;13.57;7.45;;;14.10;99.90;;;;;;5010482;28;20042;-56
2023/07/22 05:06:28;;;;;;;13.77;8.32;;;14.10;99.90;;;;;;5010582;28;20084;-55
2023/07/22 05:08:54;;;;;;;14.23;8.18;;;14.20;99.90;;;;;;5009391;28;20049;-55
2023/07/22 05:11:19;;;;;;;12.73;7.32;;;14.30;99.90;;;;;;5010720;28;20058;-56
2023/07/22 05:13:45;;;;;;;16.60;8.13;;;14.30;99.90;;;;;;5010081;28;20080;-55
2023/07/22 05:16:10;;;;;;;13.23;7.70;;;14.40;99.90;;;;;;5010475;28;20061;-56
2023/07/22 05:18:38;;;;;;;15.60;7.70;;;14.40;99.90;;;;;;5026859;28;20045;-56
2023/07/22 05:21:03;;;;;;;14.00;8.57;;;14.40;99.90;;;;;;5010458;28;20022;-56
2023/07/22 05:23:28;;;;;;;12.73;8.48;;;14.40;99.90;;;;;;5010666;28;20033;-56
2023/07/22 05:25:54;;;;;;;10.38;6.80;;;14.50;99.90;;;;;;5010420;28;20065;-56
2023/07/22 05:28:20;;;;;;;16.13;8.43;;;14.60;99.90;;;;;;5010200;28;20087;-56
2023/07/22 05:30:45;;;;;;;12.30;7.35;;;14.60;99.90;;;;;;5010264;28;20099;-56
2023/07/22 05:33:11;;;;;;;18.40;9.65;;;14.60;99.90;;;;;;5024701;28;20032;-55
2023/07/22 05:35:36;;;;;;;13.85;8.15;;;14.70;99.90;;;;;;5025330;28;20057;-56
2023/07/22 05:38:04;;;;;;;12.25;7.43;;;14.70;99.90;;;;;;5009991;28;20022;-56
2023/07/22 05:40:30;;;;;;;11.75;7.75;;;14.70;99.90;;;;;;5010110;28;20017;-57
2023/07/22 05:42:56;;;;;;;14.57;8.13;;;14.70;99.90;;;;;;5009511;28;20022;-56
2023/07/22 05:45:21;;;;;;;21.17;8.27;;;14.80;99.90;;;;;;5029444;28;20501;-56
2023/07/22 05:47:47;;;;;;;13.30;7.55;;;14.90;99.90;;;;;;5009561;28;20121;-57
2023/07/22 05:50:12;;;;;;;16.42;7.45;;;14.90;99.90;;;;;;5009400;28;20084;-56
2023/07/22 05:52:38;;;;;;;10.68;6.82;;;15.00;99.90;;;;;;5004245;28;20025;-56
2023/07/22 05:55:04;;;;;;;12.80;7.38;;;15.00;99.90;;;;;;5010162;28;20022;-56
2023/07/22 05:57:30;;;;;;;16.77;8.13;;;15.00;99.90;;;;;;5009978;28;20021;-56
2023/07/22 05:59:56;;;;;;;17.52;8.23;;;15.00;99.90;;;;;;5009878;28;20363;-56
2023/07/22 06:02:21;;;;;;;14.32;8.30;;;15.10;99.90;;;;;;5007755;28;20049;-56
2023/07/22 06:04:47;;;;;;;12.63;7.90;;;15.10;99.90;;;;;;5009768;28;20065;-56
2023/07/22 06:07:12;;;;;;;16.45;8.25;;;15.20;99.90;;;;;;5009443;28;20037;-56
2023/07/22 06:09:38;;;;;;;17.98;9.20;;;15.20;99.90;;;;;;5009973;28;20083;-56
2023/07/22 06:12:04;;;;;;;17.63;8.20;;;15.30;99.90;;;;;;5009325;28;20049;-56
2023/07/22 06:14:29;;;;;;;16.23;7.90;;;15.40;99.90;;;;;;5009744;28;20109;-54
2023/07/22 06:16:55;;;;;;;14.88;8.13;;;15.40;99.90;;;;;;5011394;28;20014;-55
2023/07/22 06:19:20;;;;;;;12.32;6.93;;;15.40;99.90;;;;;;5024418;28;20025;-55
2023/07/22 06:21:46;;;;;;;14.07;8.13;;;15.40;99.90;;;;;;5009110;28;20087;-55
2023/07/22 06:24:11;;;;;;;16.10;8.45;;;15.50;99.90;;;;;;5024019;28;20065;-54
2023/07/22 06:26:37;;;;;;;12.07;6.85;;;15.60;99.90;;;;;;5008983;28;20037;-54
2023/07/22 06:29:02;;;;;;;14.75;7.78;;;15.60;99.90;;;;;;5009040;28;20030;-54
2023/07/22 06:31:30;;;;;;;8.73;6.28;;;15.70;99.90;;;;;;5009281;28;20025;-55
2023/07/22 06:33:57;;;;;;;12.80;7.10;;;15.70;99.90;;;;;;5024044;28;20052;-54
2023/07/22 06:36:22;;;;;;;13.98;7.55;;;15.80;99.90;;;;;;5010505;28;20416;-54
2023/07/22 06:38:48;;;;;;;13.98;7.80;;;15.90;99.90;;;;;;5008831;28;20104;-54
2023/07/22 06:41:13;;;;;;;16.25;7.75;;;15.90;99.90;;;;;;5023772;28;20022;-54
2023/07/22 06:43:40;;;;;;;13.93;7.22;;;16.00;99.90;;;;;;5008367;28;20388;-56
2023/07/22 06:46:05;;;;;;;13.98;8.20;;;16.10;99.90;;;;;;5008278;28;20030;-56
2023/07/22 06:48:31;;;;;;;19.15;7.63;;;16.20;99.90;;;;;;5008626;28;20037;-55
2023/07/22 06:50:56;;;;;;;14.52;7.55;;;16.30;99.90;;;;;;5023636;28;20026;-55
2023/07/22 06:53:22;;;;;;;10.13;7.25;;;16.30;99.90;;;;;;5008240;28;20029;-55
2023/07/22 06:55:52;;;;;;;18.90;7.78;;;16.40;99.90;;;;;;5008737;28;20018;-55
2023/07/22 06:58:22;;;;;;;;;;;16.50;99.90;;;;;;5009337;28;20414;-55
2023/07/22 07:00:52;;;;;;;11.98;7.20;;;16.60;99.90;;;;;;5008811;28;19905;-56
2023/07/22 07:03:17;;;;;;;11.07;6.70;;;16.80;99.90;;;;;;5008048;28;20037;-55
2023/07/22 07:05:43;;;;;;;10.27;6.50;;;17.00;99.90;;;;;;5008628;28;20222;-56
2023/07/22 07:08:10;;;;;;;11.00;6.60;;;17.10;99.90;;;;;;5008494;28;20038;-55
2023/07/22 07:10:39;;;;;;;15.15;7.25;;;17.20;99.90;;;;;;5008357;28;20073;-56
2023/07/22 07:13:05;;;;;;;11.75;6.28;;;17.20;99.90;;;;;;5008101;28;20233;-55
2023/07/22 07:15:30;;;;;;;11.20;6.70;;;17.20;99.90;;;;;;5025321;28;20399;-56
2023/07/22 07:17:56;;;;;;;13.50;7.20;;;17.10;99.90;;;;;;5008526;28;20036;-55
2023/07/22 07:20:21;;;;;;;10.60;6.85;;;17.10;99.90;;;;;;5008205;28;20026;-55
2023/07/22 07:22:47;;;;;;;14.50;6.60;;;17.30;99.90;;;;;;5008136;28;20080;-56
2023/07/22 07:25:15;;;;;;;11.48;6.57;;;17.40;99.90;;;;;;5008605;28;20022;-55
2023/07/22 07:27:40;;;;;;;14.32;7.10;;;17.40;99.90;;;;;;5023790;28;20018;-55
2023/07/22 07:30:08;;;;;;;12.32;7.55;;;17.50;99.90;;;;;;5008644;28;20041;-56
2023/07/22 07:32:33;;;;;;;12.70;6.72;;;17.50;99.90;;;;;;5008367;28;20022;-55
2023/07/22 07:34:59;;;;;;;11.38;6.78;;;17.50;99.90;;;;;;5009959;28;20497;-57
2023/07/22 07:37:24;;;;;;;10.43;6.55;;;17.60;99.90;;;;;;5008814;28;20037;-56
2023/07/22 07:39:50;;;;;;;16.27;7.35;;;17.80;99.90;;;;;;5008314;28;20386;-56
2023/07/22 07:42:15;;;;;;;18.95;6.70;;;17.90;99.90;;;;;;5007729;28;20026;-56
2023/07/22 07:44:41;;;;;;;11.50;6.95;;;17.90;99.90;;;;;;5008369;28;20099;-55
2023/07/22 07:47:06;;;;;;;8.65;6.00;;;18.10;99.90;;;;;;5008115;28;20028;-55
2023/07/22 07:49:32;;;;;;;9.63;6.28;;;18.20;99.90;;;;;;5008220;28;20514;-56
2023/07/22 07:51:58;;;;;;;12.77;6.88;;;18.20;99.90;;;;;;5007855;28;20022;-56
2023/07/22 07:54:23;;;;;;;10.05;6.43;;;18.10;99.90;;;;;;5007899;28;20018;-55
2023/07/22 07:56:49;;;;;;;12.38;7.40;;;18.30;99.90;;;;;;5008658;28;20390;-56
2023/07/22 07:59:14;;;;;;;10.35;5.78;;;18.40;99.90;;;;;;5010816;28;20029;-55
2023/07/22 08:01:41;;;;;;;9.75;7.05;;;18.50;99.90;;;;;;5011979;28;20475;-56
2023/07/22 08:04:08;;;;;;;13.55;6.63;;;18.50;99.90;;;;;;5011660;28;20053;-55
2023/07/22 08:06:34;;;;;;;12.15;7.28;;;18.60;99.90;;;;;;5011564;28;20037;-55
2023/07/22 08:08:59;;;;;;;10.82;6.82;;;18.80;99.90;;;;;;5012042;28;20484;-55
2023/07/22 08:11:25;;;;;;;11.52;6.65;;;18.90;99.90;;;;;;5011429;28;20033;-55
2023/07/22 08:13:51;;;;;;;12.10;6.75;;;19.00;99.70;;;;;;5011348;28;20030;-56
2023/07/22 08:16:17;;;;;;;8.27;5.88;;;19.20;98.30;;;;;;5011102;28;20388;-56
2023/07/22 08:18:43;;;;;;;9.52;6.25;;;19.20;98.90;;;;;;5011576;28;20050;-56
2023/07/22 08:21:09;;;;;;;10.75;6.53;;;19.30;97.80;;;;;;5026687;28;20498;-56
2023/07/22 08:23:36;;;;;;;13.70;6.93;;;19.50;97.60;;;;;;5011584;28;20036;-56
2023/07/22 08:26:03;;;;;;;10.50;6.43;;;19.70;96.80;;;;;;5011591;28;20314;-56
2023/07/22 08:28:30;;;;;;;8.65;5.95;;;19.90;96.20;;;;;;5011537;28;20018;-55
2023/07/22 08:30:56;;;;;;;9.88;5.60;;;19.90;96.70;;;;;;5011745;28;20033;-55
2023/07/22 08:33:23;;;;;;;7.90;5.28;;;20.60;95.60;;;;;;5009169;28;20088;-55
2023/07/22 08:35:49;;;;;;;14.48;7.75;;;21.60;93.00;;;;;;5011319;28;20018;-55
2023/07/22 08:38:15;;;;;;;9.85;5.55;;;22.00;91.80;;;;;;5024493;28;20674;-55
2023/07/22 08:40:41;;;;;;;7.25;5.40;;;22.80;90.60;;;;;;5026509;28;20071;-55
2023/07/22 08:43:11;;;;;;;9.82;5.50;;;23.70;87.30;;;;;;5010901;28;20033;-56
2023/07/22 08:45:38;;;;;;;6.32;5.43;;;24.50;83.90;;;;;;5011303;28;20080;-56
2023/07/22 08:48:07;;;;;;;7.10;5.00;;;25.10;82.50;;;;;;5026573;28;20026;-56
2023/07/22 08:50:42;;;;;;;5.15;4.65;;;25.20;76.90;;;;;;5011244;28;20743;-56
2023/07/22 08:53:08;;;;;;;7.38;5.32;;;25.20;77.60;;;;;;5025743;28;20030;-55
2023/07/22 08:55:34;;;;;;;9.10;5.03;;;24.20;79.20;;;;;;5011204;28;20022;-56
2023/07/22 08:58:01;;;;;;;9.15;5.38;;;23.80;79.20;;;;;;5011022;28;20097;-56
2023/07/22 09:00:27;;;;;;;6.00;4.93;;;23.80;80.40;;;;;;5011185;28;20034;-55
2023/07/22 09:02:53;;;;;;;8.82;5.07;;;23.90;80.30;;;;;;5010277;28;20041;-55
2023/07/22 09:05:18;;;;;;;9.63;5.00;;;23.50;81.90;;;;;;5010569;28;20033;-55
2023/07/22 09:07:47;;;;;;;7.75;5.18;;;23.70;81.80;;;;;;5010087;28;20053;-56
2023/07/22 09:10:13;;;;;;;8.38;5.50;;;23.10;81.90;;;;;;5025590;28;20022;-55
2023/07/22 09:12:41;;;;;;;10.05;5.40;;;23.20;82.30;;;;;;5008820;28;20309;-55
2023/07/22 09:15:12;;;;;;;4.75;4.30;;;23.40;81.70;;;;;;5010611;28;20280;-55
2023/07/22 09:17:41;;;;;;;8.52;5.15;;;23.80;81.40;;;;;;5008916;28;20014;-55
2023/07/22 09:20:07;;;;;;;8.35;5.03;;;23.90;80.90;;;;;;5010869;28;20026;-55
2023/07/22 09:22:34;;;;;;;8.20;5.28;;;24.00;80.00;;;;;;5010071;28;20495;-56
2023/07/22 09:25:20;;;;;;;6.00;4.93;;;24.50;80.60;;;;;;5010560;28;20115;-56
2023/07/22 09:27:47;;;;;;;7.85;5.57;;;24.80;77.10;;;;;;5010403;28;20459;-56
2023/07/22 09:30:27;;;;;;;9.20;5.45;;;24.20;78.40;;;;;;5008694;28;20030;-56
2023/07/22 09:32:55;;;;;;;6.30;4.75;;;23.80;78.00;;;;;;5010389;28;20029;-56
2023/07/22 09:35:22;;;;;;;8.02;6.07;;;23.30;81.30;;;;;;5008922;28;20064;-55
2023/07/22 09:37:48;;;;;;;6.63;4.88;;;22.70;81.40;;;;;;5010338;28;20021;-56
2023/07/22 09:40:16;;;;;;;8.40;5.82;;;22.20;82.80;;;;;;5010571;28;20022;-55
2023/07/22 09:42:56;;;;;;;9.18;5.50;;;22.10;83.50;;;;;;5009434;28;20018;-56
2023/07/22 09:45:23;;;;;;;10.15;5.45;;;21.80;81.90;;;;;;5009813;28;20049;-56
2023/07/22 09:47:50;;;;;;;8.70;5.22;;;21.40;84.70;;;;;;5009771;28;20024;-56
2023/07/22 09:50:18;;;;;;;8.07;5.53;;;21.40;84.60;;;;;;5009790;28;20505;-56
2023/07/22 09:52:52;;;;;;;6.35;5.35;;;21.50;85.20;;;;;;5009978;28;20109;-56
2023/07/22 09:55:20;;;;;;;10.80;5.88;;;21.50;84.30;;;;;;5009891;28;20419;-55
2023/07/22 09:57:52;;;;;;;8.38;5.15;;;21.70;84.40;;;;;;5009969;28;20022;-55
2023/07/22 10:00:20;;;;;;;7.32;4.85;;;22.40;83.30;;;;;;5010053;28;20048;-55
2023/07/22 10:02:49;;;;;;;10.13;6.40;;;23.20;80.70;;;;;;5009199;28;20119;-56
2023/07/22 10:05:16;;;;;;;7.05;5.13;;;22.80;79.00;;;;;;5009963;28;20022;-55
2023/07/22 10:07:56;;;;;;;8.27;5.35;;;22.60;80.40;;;;;;5009673;28;20077;-55
2023/07/22 10:10:26;;;;;;;7.03;4.77;;;22.30;82.40;;;;;;5009970;28;20101;-56
2023/07/22 10:12:53;;;;;;;5.10;4.32;;;23.40;81.10;;;;;;5009440;28;20360;-56
2023/07/22 10:15:19;;;;;;;7.07;4.75;;;24.40;75.80;;;;;;5009705;28;20060;-56
2023/07/22 10:17:45;;;;;;;6.47;4.88;;;24.70;75.60;;;;;;5009634;28;20222;-56
2023/07/22 10:20:19;;;;;;;6.93;4.88;;;25.20;74.00;;;;;;5008627;28;20507;-56
2023/07/22 10:22:46;;;;;;;7.97;6.05;;;25.70;73.90;;;;;;5008925;28;20014;-56
2023/07/22 10:25:14;;;;;;;10.13;6.00;;;26.20;71.90;;;;;;5009150;28;20030;-56
2023/07/22 10:27:41;;;;;;;9.30;5.28;;;25.50;71.60;;;;;;5009027;28;20029;-56
2023/07/22 10:30:11;;;;;;;9.20;6.32;;;25.10;74.70;;;;;;5009538;28;20029;-56
2023/07/22 10:32:48;;;;;;;9.90;7.15;;;24.70;74.50;;;;;;5008618;28;20037;-56
2023/07/22 10:35:30;;;;;;;8.65;7.38;;;23.90;76.10;;;;;;5009071;28;20415;-56
2023/07/22 10:37:56;;;;;;;7.05;5.82;;;23.50;77.00;;;;;;5008923;28;20022;-56
2023/07/22 10:40:24;;;;;;;9.32;7.88;;;23.20;78.10;;;;;;5008827;28;20025;-56
2023/07/22 10:42:56;;;;;;;8.68;7.10;;;23.60;76.30;;;;;;5008443;28;20113;-56
2023/07/22 10:45:29;;;;;;;11.27;7.53;;;23.50;76.90;;;;;;5008813;28;20032;-55
2023/07/22 10:48:28;;;;;;;9.80;7.72;;;23.70;77.50;;;;;;5009023;28;20026;-56
2023/07/22 10:50:58;;;;;;;11.20;7.28;;;23.80;76.90;;;;;;5008843;28;20026;-55
2023/07/22 10:53:26;;;;;;;12.18;7.65;;;23.80;76.70;;;;;;5008550;28;20034;-56
2023/07/22 10:56:12;;;;;;;9.88;7.30;;;24.60;75.40;;;;;;5008818;28;20044;-55
2023/07/22 10:58:46;;;;;;;10.35;6.85;;;25.20;72.80;;;;;;5008677;28;20502;-55
2023/07/22 11:01:30;;;;;;;9.90;7.40;;;25.10;73.00;;;;;;5008679;28;20022;-55
2023/07/22 11:04:16;;;;;;;9.00;8.00;;;24.60;74.90;;;;;;5008337;28;20017;-56
2023/07/22 11:06:47;;;;;;;8.95;7.80;;;23.80;76.40;;;;;;5008659;28;20117;-55
2023/07/22 11:09:33;;;;;;;9.93;7.50;;;23.40;78.10;;;;;;5008635;28;20299;-56
2023/07/22 11:11:59;;;;;;;9.25;8.18;;;23.40;78.90;;;;;;5008279;28;20426;-55
2023/07/22 11:14:30;;;;;;;9.20;7.57;;;23.10;78.90;;;;;;5008111;28;20029;-56
2023/07/22 11:17:00;;;;;;;11.43;7.07;;;24.30;77.60;;;;;;5008782;28;20033;-55
2023/07/22 11:19:26;;;;;;;;;;;24.80;73.80;;;;;;5009285;28;20081;-56
2023/07/22 11:21:53;;;;;;;10.23;6.88;;;24.60;74.10;;;;;;5008544;28;19921;-55
2023/07/22 11:24:20;;;;;;;7.57;6.63;;;24.40;76.20;;;;;;5008641;28;20360;-56
2023/07/22 11:26:47;;;;;;;9.70;6.68;;;24.50;75.70;;;;;;5008310;28;20033;-56
2023/07/22 11:29:14;;;;;;;10.55;6.75;;;24.70;76.00;;;;;;5008524;28;20034;-56
2023/07/22 11:31:47;;;;;;;11.75;6.70;;;24.20;75.10;;;;;;5004779;28;20030;-55
2023/07/22 11:34:20;;;;;;;12.25;5.97;;;23.40;76.60;;;;;;5004449;28;20030;-55
2023/07/22 11:36:47;;;;;;;10.95;6.18;;;22.50;78.10;;;;;;5012715;28;20022;-55
2023/07/22 11:39:15;;;;;;;6.70;6.00;;;21.90;80.70;;;;;;5012362;28;20029;-55
2023/07/22 11:41:41;;;;;;;7.70;5.97;;;21.60;82.90;;;;;;5010904;28;20284;-55
2023/07/22 11:44:13;;;;;;;9.00;6.47;;;21.40;83.40;;;;;;5011910;28;20533;-55
2023/07/22 11:46:57;;;;;;;7.85;6.00;;;21.20;84.20;;;;;;5012064;28;20100;-55
2023/07/22 11:49:24;;;;;;;8.93;6.10;;;20.90;86.30;;;;;;5008884;28;20037;-55
2023/07/22 11:51:49;;;;;;;7.68;6.38;;;20.70;85.10;;;;;;5006846;28;20051;-55
2023/07/22 11:54:17;;;;;;;9.02;6.68;;;20.40;85.70;;;;;;5010683;28;20112;-56
2023/07/22 11:56:42;;;;;;;9.68;6.28;;;20.20;86.80;;;;;;5012386;28;20073;-55
2023/07/22 11:59:08;;;;;;;8.07;6.65;;;20.20;87.60;;;;;;5012044;28;20034;-55
2023/07/22 12:01:33;;;;;;;8.52;6.28;;;20.00;88.20;;;;;;5027049;28;20145;-55
2023/07/22 12:03:59;;;;;;;7.65;5.88;;;19.90;88.80;;;;;;5011707;28;20185;-55
2023/07/22 12:06:26;;;;;;;7.72;5.47;;;19.80;89.20;;;;;;5012247;28;20041;-55
2023/07/22 12:08:52;;;;;;;6.45;5.15;;;19.90;90.10;;;;;;5011959;28;20483;-56
2023/07/22 12:11:18;;;;;;;8.32;5.28;;;19.90;90.60;;;;;;5011627;28;20029;-55
2023/07/22 12:13:46;;;;;;;7.90;4.90;;;19.90;90.60;;;;;;5011373;28;20029;-55
2023/07/22 12:16:13;;;;;;;8.50;5.95;;;19.90;90.10;;;;;;5011946;28;20491;-55
2023/07/22 12:18:44;;;;;;;7.20;5.43;;;20.10;90.40;;;;;;5011722;28;20022;-56
2023/07/22 12:21:10;;;;;;;6.28;5.03;;;20.30;90.50;;;;;;5009825;28;20030;-55
2023/07/22 12:23:37;;;;;;;10.25;7.57;;;20.40;90.30;;;;;;5009568;28;20033;-55
2023/07/22 12:26:03;;;;;;;7.97;5.55;;;20.40;89.50;;;;;;5009718;28;20148;-55
2023/07/22 12:28:29;;;;;;;6.07;5.07;;;20.40;89.70;;;;;;5010058;28;20030;-56
2023/07/22 12:30:57;;;;;;;5.88;5.15;;;20.50;89.40;;;;;;5025145;28;20491;-55
2023/07/22 12:33:24;;;;;;;7.32;5.10;;;20.80;89.40;;;;;;5009377;28;20161;-56
2023/07/22 12:35:49;;;;;;;6.97;5.35;;;21.50;89.20;;;;;;5010716;28;20014;-56
2023/07/22 12:38:15;;;;;;;6.75;5.57;;;21.80;86.90;;;;;;5011543;28;20025;-56
2023/07/22 12:40:40;;;;;;;5.90;4.57;;;22.00;86.60;;;;;;5011092;28;20097;-55